sensor_id;sensor_type;location;lat;lon;timestamp;pressure;altitude;pressure_sealevel;temperature;humidity
2397;BME280;1209;48.410;9.054;2024-01-10T00:00:34;96928.72;;;-6.22;100.00
2397;BME280;1209;48.410;9.054;2024-01-10T00:02:59;96927.72;;;-6.18;100.00
2397;BME280;1209;48.410;9.054;2024-01-10T00:05:24;96926.84;;;-6.17;100.00
2397;BME280;1209;48.410;9.054;2024-01-10T00:07:50;96916.31;;;-6.07;100.00
2397;BME280;1209;48.410;9.054;2024-01-10T00:10:15;96923.31;;;-6.13;100.00
2397;BME280;1209;48.410;9.054;2024-01-10T00:12:41;96926.84;;;-6.17;100.00
2397;BME280;1209;48.410;9.054;2024-01-10T00:18:30;96920.41;;;-5.82;100.00
2397;BME280;1209;48.410;9.054;2024-01-10T00:20:56;96919.84;;;-5.67;100.00
2397;BME280;1209;48.410;9.054;2024-01-10T00:23:21;96911.19;;;-5.63;100.00
2397;BME280;1209;48.410;9.054;2024-01-10T00:25:47;96915.69;;;-5.70;100.00
2397;BME280;1209;48.410;9.054;2024-01-10T00:28:13;96915.91;;;-5.76;100.00
2397;BME280;1209;48.410;9.054;2024-01-10T00:30:38;96917.81;;;-5.59;100.00
2397;BME280;1209;48.410;9.054;2024-01-10T00:33:04;96911.25;;;-5.86;100.00
2397;BME280;1209;48.410;9.054;2024-01-10T00:35:30;96910.56;;;-6.12;100.00
2397;BME280;1209;48.410;9.054;2024-01-10T00:37:55;96906.66;;;-5.98;100.00
2397;BME280;1209;48.410;9.054;2024-01-10T00:40:21;96903.56;;;-5.85;100.00
2397;BME280;1209;48.410;9.054;2024-01-10T00:42:47;96912.16;;;-5.65;100.00
2397;BME280;1209;48.410;9.054;2024-01-10T00:45:12;96904.59;;;-5.67;100.00
2397;BME280;1209;48.410;9.054;2024-01-10T00:47:38;96907.47;;;-5.54;100.00
2397;BME280;1209;48.410;9.054;2024-01-10T00:50:03;96899.41;;;-5.44;100.00
2397;BME280;1209;48.410;9.054;2024-01-10T00:52:28;96894.28;;;-5.64;100.00
2397;BME280;1209;48.410;9.054;2024-01-10T00:54:54;96893.91;;;-5.55;100.00
2397;BME280;1209;48.410;9.054;2024-01-10T00:57:19;96886.28;;;-5.77;100.00
2397;BME280;1209;48.410;9.054;2024-01-10T00:59:44;96888.72;;;-5.74;100.00
2397;BME280;1209;48.410;9.054;2024-01-10T01:02:10;96890.97;;;-5.66;100.00
2397;BME280;1209;48.410;9.054;2024-01-10T01:04:35;96894.03;;;-5.80;100.00
2397;BME280;1209;48.410;9.054;2024-01-10T01:07:00;96886.78;;;-5.67;100.00
2397;BME280;1209;48.410;9.054;2024-01-10T01:09:25;96888.72;;;-5.74;100.00
2397;BME280;1209;48.410;9.054;2024-01-10T01:11:51;96888.25;;;-5.61;100.00
2397;BME280;1209;48.410;9.054;2024-01-10T01:14:16;96892.56;;;-5.63;100.00
2397;BME280;1209;48.410;9.054;2024-01-10T01:16:41;96889.53;;;-5.73;100.00
2397;BME280;1209;48.410;9.054;2024-01-10T01:19:07;96895.94;;;-5.63;100.00
2397;BME280;1209;48.410;9.054;2024-01-10T01:21:32;96888.84;;;-5.55;100.00
2397;BME280;1209;48.410;9.054;2024-01-10T01:23:57;96889.84;;;-5.59;100.00
2397;BME280;1209;48.410;9.054;2024-01-10T01:26:22;96892.44;;;-5.60;100.00
2397;BME280;1209;48.410;9.054;2024-01-10T01:28:48;96890.19;;;-5.46;100.00
2397;BME280;1209;48.410;9.054;2024-01-10T01:31:14;96894.75;;;-5.34;100.00
2397;BME280;1209;48.410;9.054;2024-01-10T01:33:39;96888.28;;;-5.21;100.00
2397;BME280;1209;48.410;9.054;2024-01-10T01:36:06;96888.34;;;-5.22;100.00
2397;BME280;1209;48.410;9.054;2024-01-10T01:38:31;96896.50;;;-5.14;100.00
2397;BME280;1209;48.410;9.054;2024-01-10T01:40:57;96896.25;;;-5.08;100.00
2397;BME280;1209;48.410;9.054;2024-01-10T01:43:24;96895.31;;;-5.05;100.00
2397;BME280;1209;48.410;9.054;2024-01-10T01:45:53;96894.94;;;-5.17;100.00
2397;BME280;1209;48.410;9.054;2024-01-10T01:48:19;96888.13;;;-5.16;100.00
2397;BME280;1209;48.410;9.054;2024-01-10T01:50:46;96896.88;;;-5.03;100.00
2397;BME280;1209;48.410;9.054;2024-01-10T01:53:13;96903.38;;;-4.96;100.00
2397;BME280;1209;48.410;9.054;2024-01-10T01:55:41;96903.38;;;-4.96;100.00
2397;BME280;1209;48.410;9.054;2024-01-10T01:58:07;96900.00;;;-4.96;100.00
2397;BME280;1209;48.410;9.054;2024-01-10T02:00:33;96900.69;;;-4.93;100.00
2397;BME280;1209;48.410;9.054;2024-01-10T02:02:59;96892.88;;;-4.88;100.00
2397;BME280;1209;48.410;9.054;2024-01-10T02:05:25;96893.66;;;-5.07;100.00
2397;BME280;1209;48.410;9.054;2024-01-10T02:07:51;96893.00;;;-5.12;100.00
2397;BME280;1209;48.410;9.054;2024-01-10T02:10:16;96893.72;;;-5.08;100.00
2397;BME280;1209;48.410;9.054;2024-01-10T02:12:41;96889.50;;;-5.09;100.00
2397;BME280;1209;48.410;9.054;2024-01-10T02:15:07;96890.09;;;-5.02;100.00
2397;BME280;1209;48.410;9.054;2024-01-10T02:17:32;96890.66;;;-4.96;100.00
2397;BME280;1209;48.410;9.054;2024-01-10T02:20:10;96891.81;;;-5.03;100.00
2397;BME280;1209;48.410;9.054;2024-01-10T02:22:36;96885.91;;;-4.85;100.00
2397;BME280;1209;48.410;9.054;2024-01-10T02:25:03;96890.38;;;-4.90;100.00
2397;BME280;1209;48.410;9.054;2024-01-10T02:27:28;96895.47;;;-4.90;100.00
2397;BME280;1209;48.410;9.054;2024-01-10T02:29:54;96885.91;;;-4.85;100.00
2397;BME280;1209;48.410;9.054;2024-01-10T02:32:20;96884.00;;;-4.80;100.00
2397;BME280;1209;48.410;9.054;2024-01-10T02:34:45;96879.63;;;-4.96;100.00
2397;BME280;1209;48.410;9.054;2024-01-10T02:37:10;96877.47;;;-4.85;100.00
2397;BME280;1209;48.410;9.054;2024-01-10T02:39:35;96871.72;;;-4.90;100.00
2397;BME280;1209;48.410;9.054;2024-01-10T02:42:01;96875.41;;;-4.77;100.00
2397;BME280;1209;48.410;9.054;2024-01-10T02:44:27;96874.44;;;-4.75;100.00
2397;BME280;1209;48.410;9.054;2024-01-10T02:46:53;96865.22;;;-4.77;100.00
2397;BME280;1209;48.410;9.054;2024-01-10T02:49:18;96869.88;;;-4.66;100.00
2397;BME280;1209;48.410;9.054;2024-01-10T02:51:43;96863.59;;;-4.59;100.00
2397;BME280;1209;48.410;9.054;2024-01-10T02:54:09;96861.34;;;-4.65;100.00
2397;BME280;1209;48.410;9.054;2024-01-10T02:56:34;96862.09;;;-4.63;100.00
2397;BME280;1209;48.410;9.054;2024-01-10T02:58:59;96855.78;;;-4.75;100.00
2397;BME280;1209;48.410;9.054;2024-01-10T03:01:24;96859.06;;;-4.71;100.00
2397;BME280;1209;48.410;9.054;2024-01-10T03:03:50;96861.75;;;-4.56;100.00
2397;BME280;1209;48.410;9.054;2024-01-10T03:06:15;96854.72;;;-4.51;100.00
2397;BME280;1209;48.410;9.054;2024-01-10T03:08:40;96856.38;;;-4.50;100.00
2397;BME280;1209;48.410;9.054;2024-01-10T03:11:05;96852.88;;;-4.66;100.00
2397;BME280;1209;48.410;9.054;2024-01-10T03:13:31;96852.09;;;-4.68;100.00
2397;BME280;1209;48.410;9.054;2024-01-10T03:15:56;96851.69;;;-4.59;100.00
2397;BME280;1209;48.410;9.054;2024-01-10T03:18:23;96857.13;;;-4.48;100.00
2397;BME280;1209;48.410;9.054;2024-01-10T03:20:48;96852.13;;;-4.49;100.00
2397;BME280;1209;48.410;9.054;2024-01-10T03:23:13;96850.47;;;-4.50;100.00
2397;BME280;1209;48.410;9.054;2024-01-10T03:25:39;96856.16;;;-4.64;100.00
2397;BME280;1209;48.410;9.054;2024-01-10T03:28:04;96849.69;;;-4.52;100.00
2397;BME280;1209;48.410;9.054;2024-01-10T03:30:30;96848.06;;;-4.53;100.00
2397;BME280;1209;48.410;9.054;2024-01-10T03:32:55;96846.06;;;-4.47;100.00
2397;BME280;1209;48.410;9.054;2024-01-10T03:35:21;96837.84;;;-4.53;100.00
2397;BME280;1209;48.410;9.054;2024-01-10T03:37:46;96842.25;;;-4.57;100.00
2397;BME280;1209;48.410;9.054;2024-01-10T03:40:11;96843.91;;;-4.56;100.00
2397;BME280;1209;48.410;9.054;2024-01-10T03:42:37;96837.72;;;-4.50;100.00
2397;BME280;1209;48.410;9.054;2024-01-10T03:45:03;96839.09;;;-4.43;100.00
2397;BME280;1209;48.410;9.054;2024-01-10T03:47:28;96843.56;;;-4.29;100.00
2397;BME280;1209;48.410;9.054;2024-01-10T03:49:54;96840.59;;;-4.39;100.00
2397;BME280;1209;48.410;9.054;2024-01-10T03:52:19;96851.91;;;-4.26;100.00
2397;BME280;1209;48.410;9.054;2024-01-10T03:54:45;96845.78;;;-4.22;100.00
2397;BME280;1209;48.410;9.054;2024-01-10T03:57:10;96846.00;;;-3.90;100.00
2397;BME280;1209;48.410;9.054;2024-01-10T03:59:36;96849.25;;;-3.87;100.00
2397;BME280;1209;48.410;9.054;2024-01-10T04:02:01;96845.41;;;-3.95;100.00
2397;BME280;1209;48.410;9.054;2024-01-10T04:04:27;96841.66;;;-3.88;100.00
2397;BME280;1209;48.410;9.054;2024-01-10T04:06:52;96846.09;;;-3.92;100.00
2397;BME280;1209;48.410;9.054;2024-01-10T04:09:17;96851.28;;;-4.12;100.00
2397;BME280;1209;48.410;9.054;2024-01-10T04:11:42;96843.84;;;-4.17;100.00
2397;BME280;1209;48.410;9.054;2024-01-10T04:14:08;96844.13;;;-4.41;100.00
2397;BME280;1209;48.410;9.054;2024-01-10T04:16:33;96844.88;;;-4.39;100.00
2397;BME280;1209;48.410;9.054;2024-01-10T04:18:58;96846.41;;;-4.17;100.00
2397;BME280;1209;48.410;9.054;2024-01-10T04:21:24;96851.69;;;-4.02;100.00
2397;BME280;1209;48.410;9.054;2024-01-10T04:23:49;96854.66;;;-4.12;100.00
2397;BME280;1209;48.410;9.054;2024-01-10T04:26:17;96851.75;;;-4.41;100.00
2397;BME280;1209;48.410;9.054;2024-01-10T04:28:42;96851.75;;;-4.41;100.00
2397;BME280;1209;48.410;9.054;2024-01-10T04:31:07;96851.91;;;-4.26;100.00
2397;BME280;1209;48.410;9.054;2024-01-10T04:33:32;96848.66;;;-4.48;100.00
2397;BME280;1209;48.410;9.054;2024-01-10T04:35:58;96857.06;;;-4.65;100.00
2397;BME280;1209;48.410;9.054;2024-01-10T04:38:23;96860.72;;;-4.52;100.00
2397;BME280;1209;48.410;9.054;2024-01-10T04:40:51;96868.22;;;-4.49;100.00
2397;BME280;1209;48.410;9.054;2024-01-10T04:43:16;96868.38;;;-4.52;100.00
2397;BME280;1209;48.410;9.054;2024-01-10T04:45:42;96864.22;;;-4.54;100.00
2397;BME280;1209;48.410;9.054;2024-01-10T04:48:07;96864.91;;;-4.51;100.00
2397;BME280;1209;48.410;9.054;2024-01-10T04:50:32;96868.09;;;-4.46;100.00
2397;BME280;1209;48.410;9.054;2024-01-10T04:52:57;96872.09;;;-4.59;100.00
2397;BME280;1209;48.410;9.054;2024-01-10T04:55:23;96872.00;;;-4.57;100.00
2397;BME280;1209;48.410;9.054;2024-01-10T04:57:48;96874.34;;;-4.53;100.00
2397;BME280;1209;48.410;9.054;2024-01-10T05:00:13;96869.66;;;-4.43;100.00
2397;BME280;1209;48.410;9.054;2024-01-10T05:02:39;96868.16;;;-4.47;100.00
2397;BME280;1209;48.410;9.054;2024-01-10T05:05:04;96864.09;;;-4.51;100.00
2397;BME280;1209;48.410;9.054;2024-01-10T05:07:30;96872.63;;;-4.52;100.00
2397;BME280;1209;48.410;9.054;2024-01-10T05:09:55;96862.72;;;-4.39;100.00
2397;BME280;1209;48.410;9.054;2024-01-10T05:12:21;96871.25;;;-4.40;100.00
2397;BME280;1209;48.410;9.054;2024-01-10T05:14:46;96868.91;;;-4.26;100.00
2397;BME280;1209;48.410;9.054;2024-01-10T05:17:11;96855.31;;;-4.25;100.00
2397;BME280;1209;48.410;9.054;2024-01-10T05:19:37;96863.41;;;-4.17;100.00
2397;BME280;1209;48.410;9.054;2024-01-10T05:22:02;96868.53;;;-4.17;100.00
2397;BME280;1209;48.410;9.054;2024-01-10T05:24:27;96864.91;;;-4.32;100.00
2397;BME280;1209;48.410;9.054;2024-01-10T05:26:53;96867.81;;;-4.02;100.00
2397;BME280;1209;48.410;9.054;2024-01-10T05:29:18;96875.88;;;-4.30;100.00
2397;BME280;1209;48.410;9.054;2024-01-10T05:31:45;96873.81;;;-4.40;100.00
2397;BME280;1209;48.410;9.054;2024-01-10T05:34:11;96874.50;;;-4.37;100.00
2397;BME280;1209;48.410;9.054;2024-01-10T05:36:36;96872.44;;;-4.48;100.00
2397;BME280;1209;48.410;9.054;2024-01-10T05:39:01;96877.38;;;-4.45;100.00
2397;BME280;1209;48.410;9.054;2024-01-10T05:41:27;96880.91;;;-4.28;100.00
2397;BME280;1209;48.410;9.054;2024-01-10T05:43:52;96867.94;;;-4.43;100.00
2397;BME280;1209;48.410;9.054;2024-01-10T05:46:17;96867.53;;;-4.52;100.00
2397;BME280;1209;48.410;9.054;2024-01-10T05:48:44;96868.16;;;-4.66;100.00
2397;BME280;1209;48.410;9.054;2024-01-10T05:51:11;96867.97;;;-4.82;100.00
2397;BME280;1209;48.410;9.054;2024-01-10T05:53:37;96877.19;;;-4.59;100.00
2397;BME280;1209;48.410;9.054;2024-01-10T05:56:02;96868.78;;;-4.61;100.00
2397;BME280;1209;48.410;9.054;2024-01-10T05:58:28;96865.66;;;-4.67;100.00
2397;BME280;1209;48.410;9.054;2024-01-10T06:00:53;96874.56;;;-4.78;100.00
2397;BME280;1209;48.410;9.054;2024-01-10T06:03:20;96865.75;;;-4.69;100.00
2397;BME280;1209;48.410;9.054;2024-01-10T06:05:45;96866.09;;;-4.58;100.00
2397;BME280;1209;48.410;9.054;2024-01-10T06:08:10;96863.53;;;-4.58;100.00
2397;BME280;1209;48.410;9.054;2024-01-10T06:10:36;96870.91;;;-4.52;100.00
2397;BME280;1209;48.410;9.054;2024-01-10T06:13:01;96869.75;;;-4.84;100.00
2397;BME280;1209;48.410;9.054;2024-01-10T06:15:26;96868.66;;;-4.78;100.00
2397;BME280;1209;48.410;9.054;2024-01-10T06:17:52;96875.75;;;-4.85;100.00
2397;BME280;1209;48.410;9.054;2024-01-10T06:20:17;96869.28;;;-4.73;100.00
2397;BME280;1209;48.410;9.054;2024-01-10T06:22:43;96871.53;;;-4.65;100.00
2397;BME280;1209;48.410;9.054;2024-01-10T06:25:09;96867.13;;;-4.62;100.00
2397;BME280;1209;48.410;9.054;2024-01-10T06:27:34;96859.28;;;-4.78;100.00
2397;BME280;1209;48.410;9.054;2024-01-10T06:30:00;96862.09;;;-4.84;100.00
2397;BME280;1209;48.410;9.054;2024-01-10T06:32:25;96859.59;;;-5.04;100.00
2397;BME280;1209;48.410;9.054;2024-01-10T06:34:51;96874.47;;;-4.95;100.00
2397;BME280;1209;48.410;9.054;2024-01-10T06:37:16;96862.25;;;-4.87;100.00
2397;BME280;1209;48.410;9.054;2024-01-10T06:39:41;96868.91;;;-4.84;100.00
2397;BME280;1209;48.410;9.054;2024-01-10T06:42:06;96869.06;;;-4.87;100.00
2397;BME280;1209;48.410;9.054;2024-01-10T06:44:33;96877.88;;;-4.76;100.00
2397;BME280;1209;48.410;9.054;2024-01-10T06:46:58;96874.00;;;-4.84;100.00
2397;BME280;1209;48.410;9.054;2024-01-10T06:49:24;96883.00;;;-4.96;100.00
2397;BME280;1209;48.410;9.054;2024-01-10T06:51:49;96879.31;;;-4.89;100.00
2397;BME280;1209;48.410;9.054;2024-01-10T06:54:14;96883.84;;;-4.95;100.00
2397;BME280;1209;48.410;9.054;2024-01-10T06:56:40;96884.66;;;-4.95;100.00
2397;BME280;1209;48.410;9.054;2024-01-10T06:59:06;96880.06;;;-4.87;100.00
2397;BME280;1209;48.410;9.054;2024-01-10T07:01:31;96891.97;;;-4.87;100.00
2397;BME280;1209;48.410;9.054;2024-01-10T07:03:57;96891.66;;;-5.00;100.00
2397;BME280;1209;48.410;9.054;2024-01-10T07:06:22;96889.44;;;-4.67;100.00
2397;BME280;1209;48.410;9.054;2024-01-10T07:08:49;96885.53;;;-4.76;100.00
2397;BME280;1209;48.410;9.054;2024-01-10T07:11:15;96891.53;;;-4.97;100.00
2397;BME280;1209;48.410;9.054;2024-01-10T07:13:41;96885.09;;;-4.85;100.00
2397;BME280;1209;48.410;9.054;2024-01-10T07:16:06;96896.59;;;-4.77;100.00
2397;BME280;1209;48.410;9.054;2024-01-10T07:18:31;96905.59;;;-4.88;100.00
2397;BME280;1209;48.410;9.054;2024-01-10T07:20:57;96911.91;;;-4.97;100.00
2397;BME280;1209;48.410;9.054;2024-01-10T07:23:22;96912.09;;;-5.01;100.00
2397;BME280;1209;48.410;9.054;2024-01-10T07:25:48;96916.41;;;-4.83;100.00
2397;BME280;1209;48.410;9.054;2024-01-10T07:28:15;96918.53;;;-4.93;100.00
2397;BME280;1209;48.410;9.054;2024-01-10T07:30:40;96919.53;;;-4.97;100.00
2397;BME280;1209;48.410;9.054;2024-01-10T07:33:05;96923.88;;;-4.99;100.00
2397;BME280;1209;48.410;9.054;2024-01-10T07:35:32;96919.97;;;-4.87;100.00
2397;BME280;1209;48.410;9.054;2024-01-10T07:37:57;96926.28;;;-4.76;100.00
2397;BME280;1209;48.410;9.054;2024-01-10T07:40:22;96922.78;;;-4.73;100.00
2397;BME280;1209;48.410;9.054;2024-01-10T07:42:48;96924.13;;;-4.64;100.00
2397;BME280;1209;48.410;9.054;2024-01-10T07:45:13;96927.88;;;-4.73;100.00
2397;BME280;1209;48.410;9.054;2024-01-10T07:47:39;96928.53;;;-4.68;100.00
2397;BME280;1209;48.410;9.054;2024-01-10T07:50:06;96935.28;;;-4.67;100.00
2397;BME280;1209;48.410;9.054;2024-01-10T07:52:32;96929.91;;;-4.61;100.00
2397;BME280;1209;48.410;9.054;2024-01-10T07:54:57;96936.41;;;-4.54;100.00
2397;BME280;1209;48.410;9.054;2024-01-10T07:57:23;96947.41;;;-4.53;100.00
2397;BME280;1209;48.410;9.054;2024-01-10T07:59:48;96942.31;;;-4.53;100.00
2397;BME280;1209;48.410;9.054;2024-01-10T08:02:13;96939.22;;;-4.21;100.00
2397;BME280;1209;48.410;9.054;2024-01-10T08:04:38;96944.09;;;-4.16;100.00
2397;BME280;1209;48.410;9.054;2024-01-10T08:07:04;96944.44;;;-4.24;100.00
2397;BME280;1209;48.410;9.054;2024-01-10T08:09:29;96946.63;;;-4.35;100.00
2397;BME280;1209;48.410;9.054;2024-01-10T08:11:54;96950.00;;;-4.34;100.00
2397;BME280;1209;48.410;9.054;2024-01-10T08:14:19;96945.34;;;-4.25;100.00
2397;BME280;1209;48.410;9.054;2024-01-10T08:16:45;96946.34;;;-4.29;100.00
2397;BME280;1209;48.410;9.054;2024-01-10T08:19:10;96944.25;;;-4.39;100.00
2397;BME280;1209;48.410;9.054;2024-01-10T08:21:36;96941.59;;;-4.36;100.00
2397;BME280;1209;48.410;9.054;2024-01-10T08:24:02;96946.66;;;-4.16;100.00
2397;BME280;1209;48.410;9.054;2024-01-10T08:26:28;96942.31;;;-4.14;100.00
2397;BME280;1209;48.410;9.054;2024-01-10T08:28:53;96957.25;;;-4.25;100.00
2397;BME280;1209;48.410;9.054;2024-01-10T08:31:19;96955.63;;;-4.47;100.00
2397;BME280;1209;48.410;9.054;2024-01-10T08:33:44;96947.84;;;-4.44;100.00
2397;BME280;1209;48.410;9.054;2024-01-10T08:36:13;96954.66;;;-4.24;100.00
2397;BME280;1209;48.410;9.054;2024-01-10T08:38:39;96954.06;;;-4.30;100.00
2397;BME280;1209;48.410;9.054;2024-01-10T08:41:05;96950.53;;;-4.28;100.00
2397;BME280;1209;48.410;9.054;2024-01-10T08:43:30;96948.44;;;-4.18;100.00
2397;BME280;1209;48.410;9.054;2024-01-10T08:45:58;96960.72;;;-4.07;100.00
2397;BME280;1209;48.410;9.054;2024-01-10T08:48:24;96965.00;;;-4.08;100.00
2397;BME280;1209;48.410;9.054;2024-01-10T08:50:50;96959.19;;;-3.93;100.00
2397;BME280;1209;48.410;9.054;2024-01-10T08:53:15;96963.94;;;-3.85;100.00
2397;BME280;1209;48.410;9.054;2024-01-10T08:55:41;96970.28;;;-3.94;100.00
2397;BME280;1209;48.410;9.054;2024-01-10T08:58:07;96969.69;;;-3.99;100.00
2397;BME280;1209;48.410;9.054;2024-01-10T09:00:32;96974.34;;;-4.08;100.00
2397;BME280;1209;48.410;9.054;2024-01-10T09:02:57;96972.28;;;-4.00;100.00
2397;BME280;1209;48.410;9.054;2024-01-10T09:05:22;96977.47;;;-4.02;100.00
2397;BME280;1209;48.410;9.054;2024-01-10T09:07:48;96977.19;;;-3.96;100.00
2397;BME280;1209;48.410;9.054;2024-01-10T09:10:14;96982.91;;;-3.91;100.00
2397;BME280;1209;48.410;9.054;2024-01-10T09:12:39;96986.59;;;-3.77;100.00
2397;BME280;1209;48.410;9.054;2024-01-10T09:15:08;96983.69;;;-3.70;100.00
2397;BME280;1209;48.410;9.054;2024-01-10T09:17:38;96981.94;;;-3.51;100.00
2397;BME280;1209;48.410;9.054;2024-01-10T09:20:03;96987.66;;;-3.45;100.00
2397;BME280;1209;48.410;9.054;2024-01-10T09:22:29;96992.19;;;-3.33;100.00
2397;BME280;1209;48.410;9.054;2024-01-10T09:24:54;96992.31;;;-3.18;100.00
2397;BME280;1209;48.410;9.054;2024-01-10T09:27:19;96987.78;;;-3.30;100.00
2397;BME280;1209;48.410;9.054;2024-01-10T09:29:45;96990.16;;;-3.08;100.00
2397;BME280;1209;48.410;9.054;2024-01-10T09:32:10;96982.00;;;-2.80;100.00
2397;BME280;1209;48.410;9.054;2024-01-10T09:34:35;96997.97;;;-2.94;100.00
2397;BME280;1209;48.410;9.054;2024-01-10T09:37:01;96984.88;;;-3.05;100.00
2397;BME280;1209;48.410;9.054;2024-01-10T09:39:27;96981.31;;;-2.83;100.00
2397;BME280;1209;48.410;9.054;2024-01-10T09:41:52;96990.56;;;-2.81;100.00
2397;BME280;1209;48.410;9.054;2024-01-10T09:44:18;96992.63;;;-2.89;100.00
2397;BME280;1209;48.410;9.054;2024-01-10T09:46:48;96993.78;;;-2.77;100.00
2397;BME280;1209;48.410;9.054;2024-01-10T09:49:14;96984.81;;;-2.86;100.00
2397;BME280;1209;48.410;9.054;2024-01-10T09:51:40;96987.59;;;-2.91;100.00
2397;BME280;1209;48.410;9.054;2024-01-10T09:54:05;96986.88;;;-2.75;100.00
2397;BME280;1209;48.410;9.054;2024-01-10T09:56:32;96991.81;;;-2.55;100.00
2397;BME280;1209;48.410;9.054;2024-01-10T09:58:58;96992.84;;;-2.42;100.00
2397;BME280;1209;48.410;9.054;2024-01-10T10:01:23;96993.16;;;-2.31;100.00
2397;BME280;1209;48.410;9.054;2024-01-10T10:03:49;96997.22;;;-2.27;100.00
2397;BME280;1209;48.410;9.054;2024-01-10T10:06:15;96994.94;;;-2.15;100.00
2397;BME280;1209;48.410;9.054;2024-01-10T10:08:41;96994.03;;;-2.14;100.00
2397;BME280;1209;48.410;9.054;2024-01-10T10:11:11;96992.06;;;-2.09;100.00
2397;BME280;1209;48.410;9.054;2024-01-10T10:13:37;96979.66;;;-2.17;100.00
2397;BME280;1209;48.410;9.054;2024-01-10T10:16:07;96988.31;;;-2.19;100.00
2397;BME280;1209;48.410;9.054;2024-01-10T10:18:35;96982.13;;;-2.15;100.00
2397;BME280;1209;48.410;9.054;2024-01-10T10:21:11;96981.72;;;-2.41;100.00
2397;BME280;1209;48.410;9.054;2024-01-10T10:23:42;96984.19;;;-2.39;100.00
2397;BME280;1209;48.410;9.054;2024-01-10T10:26:16;96980.22;;;-2.28;100.00
2397;BME280;1209;48.410;9.054;2024-01-10T10:28:48;96985.78;;;-2.37;100.00
2397;BME280;1209;48.410;9.054;2024-01-10T10:31:18;96980.28;;;-2.29;100.00
2397;BME280;1209;48.410;9.054;2024-01-10T10:33:44;96985.31;;;-2.28;100.00
2397;BME280;1209;48.410;9.054;2024-01-10T10:36:10;96975.59;;;-2.21;100.00
2397;BME280;1209;48.410;9.054;2024-01-10T10:38:36;96975.50;;;-2.35;100.00
2397;BME280;1209;48.410;9.054;2024-01-10T10:41:07;96977.34;;;-2.22;100.00
2397;BME280;1209;48.410;9.054;2024-01-10T10:43:36;96980.88;;;-2.24;100.00
2397;BME280;1209;48.410;9.054;2024-01-10T10:46:04;96982.31;;;-2.03;100.00
2397;BME280;1209;48.410;9.054;2024-01-10T10:48:32;96981.19;;;-1.97;100.00
2397;BME280;1209;48.410;9.054;2024-01-10T10:51:19;96983.63;;;-1.78;100.00
2397;BME280;1209;48.410;9.054;2024-01-10T10:53:49;96982.53;;;-1.59;100.00
2397;BME280;1209;48.410;9.054;2024-01-10T10:56:15;96979.81;;;-1.71;100.00
2397;BME280;1209;48.410;9.054;2024-01-10T10:58:43;96988.00;;;-1.80;100.00
2397;BME280;1209;48.410;9.054;2024-01-10T11:01:11;96985.94;;;-1.58;100.00
2397;BME280;1209;48.410;9.054;2024-01-10T11:03:38;96988.41;;;-1.56;100.00
2397;BME280;1209;48.410;9.054;2024-01-10T11:06:05;96986.75;;;-1.73;100.00
2397;BME280;1209;48.410;9.054;2024-01-10T11:08:36;96986.91;;;-1.61;100.00
2397;BME280;1209;48.410;9.054;2024-01-10T11:11:05;96985.59;;;-1.68;100.00
2397;BME280;1209;48.410;9.054;2024-01-10T11:17:01;96985.28;;;-1.77;100.00
2397;BME280;1209;48.410;9.054;2024-01-10T11:19:51;96977.66;;;-1.63;100.00
2397;BME280;1209;48.410;9.054;2024-01-10T11:25:04;96978.34;;;-1.60;100.00
2397;BME280;1209;48.410;9.054;2024-01-10T11:27:30;96975.19;;;-1.65;100.00
2397;BME280;1209;48.410;9.054;2024-01-10T11:29:55;96977.41;;;-1.59;100.00
2397;BME280;1209;48.410;9.054;2024-01-10T11:32:22;96980.22;;;-1.47;100.00
2397;BME280;1209;48.410;9.054;2024-01-10T11:37:38;96983.03;;;-1.52;100.00
2397;BME280;1209;48.410;9.054;2024-01-10T11:40:08;96982.22;;;-1.52;100.00
2397;BME280;1209;48.410;9.054;2024-01-10T11:42:41;96979.47;;;-1.49;100.00
2397;BME280;1209;48.410;9.054;2024-01-10T11:45:07;96972.47;;;-1.30;100.00
2397;BME280;1209;48.410;9.054;2024-01-10T11:47:33;96972.72;;;-1.35;100.00
2397;BME280;1209;48.410;9.054;2024-01-10T11:49:58;96970.56;;;-1.27;100.00
2397;BME280;1209;48.410;9.054;2024-01-10T11:52:34;96976.53;;;-1.42;100.00
2397;BME280;1209;48.410;9.054;2024-01-10T11:55:01;96979.66;;;-1.52;100.00
2397;BME280;1209;48.410;9.054;2024-01-10T11:57:28;96964.59;;;-1.43;100.00
2397;BME280;1209;48.410;9.054;2024-01-10T11:59:56;96963.06;;;-1.30;100.00
2397;BME280;1209;48.410;9.054;2024-01-10T12:02:24;96967.66;;;-1.20;100.00
2397;BME280;1209;48.410;9.054;2024-01-10T12:04:51;96971.06;;;-1.36;100.00
2397;BME280;1209;48.410;9.054;2024-01-10T12:07:17;96962.78;;;-1.25;100.00
2397;BME280;1209;48.410;9.054;2024-01-10T12:09:43;96964.16;;;-1.04;100.00
2397;BME280;1209;48.410;9.054;2024-01-10T12:12:09;96959.38;;;-1.10;100.00
2397;BME280;1209;48.410;9.054;2024-01-10T12:14:36;96962.44;;;-1.19;100.00
2397;BME280;1209;48.410;9.054;2024-01-10T12:17:01;96965.22;;;-1.08;100.00
2397;BME280;1209;48.410;9.054;2024-01-10T12:19:29;96959.19;;;-1.07;100.00
2397;BME280;1209;48.410;9.054;2024-01-10T12:21:55;96951.91;;;-0.99;100.00
2397;BME280;1209;48.410;9.054;2024-01-10T12:24:20;96958.94;;;-1.02;100.00
2397;BME280;1209;48.410;9.054;2024-01-10T12:26:47;96957.38;;;-0.75;100.00
2397;BME280;1209;48.410;9.054;2024-01-10T12:29:17;96958.34;;;-0.91;100.00
2397;BME280;1209;48.410;9.054;2024-01-10T12:31:42;96958.81;;;-0.85;100.00
2397;BME280;1209;48.410;9.054;2024-01-10T12:34:10;96953.56;;;-0.68;100.00
2397;BME280;1209;48.410;9.054;2024-01-10T12:36:36;96962.19;;;-0.54;100.00
2397;BME280;1209;48.410;9.054;2024-01-10T12:39:01;96956.47;;;-0.74;100.00
2397;BME280;1209;48.410;9.054;2024-01-10T12:41:26;96952.09;;;-0.72;100.00
2397;BME280;1209;48.410;9.054;2024-01-10T12:43:52;96947.69;;;-0.70;100.00
2397;BME280;1209;48.410;9.054;2024-01-10T12:46:18;96944.22;;;-0.54;100.00
2397;BME280;1209;48.410;9.054;2024-01-10T12:48:43;96940.94;;;-0.56;100.00
2397;BME280;1209;48.410;9.054;2024-01-10T12:51:09;96937.31;;;-0.38;100.00
2397;BME280;1209;48.410;9.054;2024-01-10T12:53:37;96935.84;;;-0.42;100.00
2397;BME280;1209;48.410;9.054;2024-01-10T12:56:03;96937.66;;;-0.44;100.00
2397;BME280;1209;48.410;9.054;2024-01-10T12:58:29;96936.53;;;-0.54;100.00
2397;BME280;1209;48.410;9.054;2024-01-10T13:00:55;96928.84;;;-0.54;100.00
2397;BME280;1209;48.410;9.054;2024-01-10T13:03:21;96932.31;;;-0.55;100.00
2397;BME280;1209;48.410;9.054;2024-01-10T13:05:46;96938.16;;;-0.68;100.00
2397;BME280;1209;48.410;9.054;2024-01-10T13:08:11;96931.22;;;-0.51;100.00
2397;BME280;1209;48.410;9.054;2024-01-10T13:10:38;96931.31;;;-0.53;100.00
2397;BME280;1209;48.410;9.054;2024-01-10T13:13:03;96936.25;;;-0.50;100.00
2397;BME280;1209;48.410;9.054;2024-01-10T13:15:29;96935.00;;;-0.43;100.00